Time;durP1;ratioP1;P1;durP2;ratioP2;P2;SDS_P1;SDS_P2;PMS_P1;PMS_P2;Temp;Humidity;BMP_temperature;BMP_pressure;BME280_temperature;BME280_humidity;BME280_pressure;Samples;Min_cycle;Max_cycle;Signal;HPM_P1;HPM_P2
2022/09/12 00:01:16;;;;;;;6.30;2.60;;;;;;;12.82;67.82;99934.88;103405;1277;137562;-63
2022/09/12 00:03:44;;;;;;;6.60;2.80;;;;;;;12.80;67.94;99933.35;103466;1277;109600;-60
2022/09/12 00:06:20;;;;;;;5.80;2.30;;;;;;;12.72;68.13;99935.12;103432;1277;139178;-60
2022/09/12 00:08:53;;;;;;;6.20;2.20;;;;;;;12.65;68.36;99933.48;103561;1277;109233;-60
2022/09/12 00:11:21;;;;;;;7.70;2.40;;;;;;;12.65;68.45;99935.41;103407;1276;138362;-61
2022/09/12 00:13:49;;;;;;;6.80;2.50;;;;;;;12.69;68.47;99936.65;103659;1277;96557;-62
2022/09/12 00:16:23;;;;;;;6.50;2.50;;;;;;;12.69;68.49;99932.38;103363;1277;108374;-61
2022/09/12 00:18:52;;;;;;;5.50;2.30;;;;;;;12.67;68.48;99935.51;103270;1277;139364;-61
2022/09/12 00:21:22;;;;;;;6.30;2.50;;;;;;;12.66;68.61;99932.34;103478;1277;109164;-62
2022/09/12 00:23:50;;;;;;;6.90;2.40;;;;;;;12.64;68.59;99929.38;103314;1277;138650;-58
2022/09/12 00:26:19;;;;;;;6.30;2.60;;;;;;;12.64;68.74;99929.06;103404;1277;94354;-61
2022/09/12 00:28:48;;;;;;;5.70;2.30;;;;;;;12.59;68.87;99930.14;103493;1277;108374;-63
2022/09/12 00:31:18;;;;;;;6.10;2.10;;;;;;;12.56;68.99;99931.71;103396;1277;138615;-61
2022/09/12 00:33:46;;;;;;;6.90;2.50;;;;;;;12.59;68.99;99933.88;103611;1277;108830;-61
2022/09/12 00:36:20;;;;;;;6.40;2.60;;;;;;;12.62;69.07;99932.87;103324;1277;137849;-62
2022/09/12 00:38:49;;;;;;;9.70;2.80;;;;;;;12.63;68.95;99928.19;103579;1277;94348;-63
2022/09/12 00:41:19;;;;;;;7.20;2.20;;;;;;;12.66;68.98;99928.26;103454;1277;138533;-61
2022/09/12 00:43:50;;;;;;;6.20;2.10;;;;;;;12.66;68.96;99929.13;103510;1276;97939;-62
2022/09/12 00:46:35;;;;;;;6.50;2.50;;;;;;;12.64;68.90;99926.56;103501;1277;109060;-61
2022/09/12 00:49:23;;;;;;;6.70;2.40;;;;;;;12.59;69.10;99930.50;103395;1277;138210;-62
2022/09/12 00:51:58;;;;;;;5.40;2.30;;;;;;;12.55;69.23;99930.48;103435;1277;94361;-61
2022/09/12 00:54:29;;;;;;;5.70;2.30;;;;;;;12.54;69.17;99928.21;103133;1278;138333;-62
2022/09/12 00:57:01;;;;;;;7.10;2.50;;;;;;;12.45;69.42;99927.51;103500;1276;99294;-61
2022/09/12 01:00:00;;;;;;;7.20;2.40;;;;;;;12.43;69.61;99927.79;103393;1277;138836;-62
2022/09/12 01:02:31;;;;;;;5.70;2.10;;;;;;;12.44;69.77;99931.33;103384;1277;95891;-61
2022/09/12 01:04:59;;;;;;;6.20;2.30;;;;;;;12.41;69.77;99933.73;103355;1277;138614;-60
2022/09/12 01:07:28;;;;;;;7.20;2.20;;;;;;;12.37;69.82;99931.77;103310;1278;108496;-61
2022/09/12 01:09:55;;;;;;;5.80;2.00;;;;;;;12.34;69.81;99936.48;103310;1278;98150;-61
2022/09/12 01:12:24;;;;;;;7.00;2.40;;;;;;;12.31;70.09;99937.89;103260;1277;138003;-62
2022/09/12 01:14:52;;;;;;;6.60;2.50;;;;;;;12.28;70.11;99939.42;103378;1277;94598;-61
2022/09/12 01:17:20;;;;;;;6.30;2.40;;;;;;;12.25;70.04;99942.77;103285;1277;139153;-63
2022/09/12 01:20:10;;;;;;;6.30;2.60;;;;;;;12.23;70.12;99940.19;103296;1277;107472;-62
2022/09/12 01:23:13;;;;;;;7.70;2.40;;;;;;;12.20;70.25;99942.78;103322;1277;99533;-60
2022/09/12 01:25:58;;;;;;;7.40;2.30;;;;;;;12.17;70.22;99945.19;103145;1277;108928;-61
2022/09/12 01:28:26;;;;;;;5.80;2.60;;;;;;;12.13;70.40;99947.15;103328;1278;95135;-59
2022/09/12 01:31:37;;;;;;;6.60;2.60;;;;;;;12.10;70.35;99949.04;103380;1277;137540;-59
2022/09/12 01:34:22;;;;;;;6.40;2.30;;;;;;;12.07;70.51;99952.55;103327;1277;108391;-61
2022/09/12 01:37:03;;;;;;;5.80;2.70;;;;;;;12.08;70.60;99950.55;103184;1278;139603;-60
2022/09/12 01:40:03;;;;;;;7.00;2.90;;;;;;;12.07;70.68;99949.52;103288;1277;109113;-60
2022/09/12 01:42:45;;;;;;;6.60;2.50;;;;;;;12.07;70.73;99954.51;103228;1277;137761;-60
2022/09/12 01:45:30;;;;;;;6.20;2.40;;;;;;;12.12;70.68;99954.84;103616;1277;94425;-60
2022/09/12 01:48:09;;;;;;;6.50;2.50;;;;;;;12.14;70.51;99955.48;103169;1277;138524;-62
2022/09/12 01:50:53;;;;;;;6.10;2.70;;;;;;;12.12;70.61;99959.10;103349;1278;100938;-62
2022/09/12 01:53:35;;;;;;;6.10;2.60;;;;;;;12.12;70.64;99960.02;103239;1277;138401;-60
2022/09/12 01:56:12;;;;;;;5.90;2.40;;;;;;;12.12;70.79;99958.95;103310;1279;94769;-61
2022/09/12 01:58:55;;;;;;;6.00;2.80;;;;;;;12.11;70.91;99961.83;103254;1277;94830;-62
2022/09/12 02:01:28;;;;;;;6.60;2.90;;;;;;;12.09;70.82;99961.02;103286;1277;108067;-61
2022/09/12 02:03:59;;;;;;;7.00;2.70;;;;;;;12.06;70.90;99959.33;103350;1277;99523;-61
2022/09/12 02:06:35;;;;;;;6.30;3.20;;;;;;;12.06;71.16;99958.28;103370;1277;139558;-63
2022/09/12 02:09:10;;;;;;;6.40;2.60;;;;;;;12.11;71.07;99959.00;103469;1277;94625;-60
2022/09/12 02:11:42;;;;;;;6.90;2.80;;;;;;;12.08;71.10;99960.90;103429;1277;138230;-60
2022/09/12 02:14:27;;;;;;;6.80;2.70;;;;;;;12.05;71.14;99959.05;103548;1277;108599;-61
2022/09/12 02:17:10;;;;;;;6.20;2.50;;;;;;;12.06;71.22;99958.11;103363;1277;138697;-60
2022/09/12 02:20:04;;;;;;;6.40;2.80;;;;;;;12.06;71.23;99958.28;103465;1276;108105;-62
2022/09/12 02:22:36;;;;;;;7.50;3.20;;;;;;;12.05;71.29;99967.58;103363;1277;95093;-61
2022/09/12 02:25:08;;;;;;;7.30;2.90;;;;;;;11.97;71.63;99961.99;103317;1277;138012;-60
2022/09/12 02:27:41;;;;;;;6.30;2.30;;;;;;;11.91;71.74;99966.11;103467;1277;108477;-61
2022/09/12 02:30:11;;;;;;;7.90;2.50;;;;;;;11.92;71.71;99966.09;103344;1277;138739;-67
2022/09/12 02:32:57;;;;;;;6.60;2.90;;;;;;;11.94;71.95;99965.50;103423;1277;108456;-67
2022/09/12 02:35:44;;;;;;;7.00;2.80;;;;;;;11.97;71.80;99968.42;103382;1277;138918;-63
2022/09/12 02:38:18;;;;;;;6.90;2.50;;;;;;;11.96;71.78;99972.38;103439;1278;94875;-68
2022/09/12 02:40:45;;;;;;;6.50;2.60;;;;;;;11.96;71.86;99965.42;103441;1277;107333;-68
2022/09/12 02:43:13;;;;;;;7.40;3.10;;;;;;;11.91;71.97;99967.39;103379;1277;137783;-68
2022/09/12 02:45:41;;;;;;;5.80;2.80;;;;;;;11.88;72.10;99971.05;103519;1277;108812;-68
2022/09/12 02:48:09;;;;;;;6.10;2.70;;;;;;;11.85;72.14;99974.54;103280;1277;139099;-68
2022/09/12 02:50:41;;;;;;;7.30;2.70;;;;;;;11.87;72.35;99972.33;103367;1277;94900;-67
2022/09/12 02:53:10;;;;;;;6.90;3.10;;;;;;;11.89;72.28;99977.06;103346;1278;138944;-65
2022/09/12 02:55:40;;;;;;;6.80;3.10;;;;;;;11.83;72.41;99975.31;103807;1277;98409;-67
2022/09/12 02:58:16;;;;;;;7.90;2.90;;;;;;;11.76;72.53;99976.48;103500;1277;107764;-67
2022/09/12 03:00:53;;;;;;;7.80;3.20;;;;;;;11.79;72.70;99975.48;103244;1277;140540;-69
2022/09/12 03:03:40;;;;;;;7.90;3.10;;;;;;;11.79;72.54;99978.15;103507;1277;94321;-70
2022/09/12 03:06:22;;;;;;;6.10;3.00;;;;;;;11.76;72.66;99975.05;103366;1277;137632;-67
2022/09/12 03:08:59;;;;;;;6.80;2.80;;;;;;;11.72;72.84;99979.48;103465;1277;99712;-67
2022/09/12 03:11:39;;;;;;;5.50;2.60;;;;;;;11.75;72.88;99978.86;103767;1277;138885;-68
2022/09/12 03:14:29;;;;;;;6.60;3.00;;;;;;;11.80;72.81;99986.66;103416;1277;94296;-68
2022/09/12 03:17:17;;;;;;;6.20;3.10;;;;;;;11.80;72.82;99988.25;103200;1276;137991;-67
2022/09/12 03:20:09;;;;;;;7.10;3.00;;;;;;;11.85;72.67;99991.96;103530;1276;108445;-68
2022/09/12 03:22:46;;;;;;;7.30;3.00;;;;;;;11.87;72.60;99992.97;103505;1277;99557;-67
2022/09/12 03:25:23;;;;;;;5.80;3.00;;;;;;;11.83;72.74;99995.08;103385;1277;138025;-69
2022/09/12 03:28:10;;;;;;;6.60;3.00;;;;;;;11.79;72.88;100003.06;103517;1277;94346;-67
2022/09/12 03:30:41;;;;;;;6.50;2.70;;;;;;;11.80;72.82;100002.64;103657;1277;139099;-66
2022/09/12 03:33:14;;;;;;;7.10;3.20;;;;;;;11.82;72.69;100008.10;103429;1277;108335;-67
2022/09/12 03:35:42;;;;;;;6.50;3.20;;;;;;;11.83;72.84;100009.30;103581;1277;137866;-68
2022/09/12 03:38:10;;;;;;;6.00;2.80;;;;;;;11.80;72.78;100009.60;103701;1276;108901;-69
2022/09/12 03:40:38;;;;;;;7.40;2.80;;;;;;;11.81;72.84;100013.82;103526;1277;94825;-66
2022/09/12 03:43:08;;;;;;;7.20;3.00;;;;;;;11.83;72.68;100013.56;103328;1277;138579;-69
2022/09/12 03:45:36;;;;;;;7.10;2.90;;;;;;;11.82;72.75;100010.56;103323;1277;108458;-67
2022/09/12 03:48:05;;;;;;;7.30;3.30;;;;;;;11.81;72.63;100013.48;103342;1277;139120;-66
2022/09/12 03:50:33;;;;;;;7.80;3.00;;;;;;;11.77;72.73;100013.61;103390;1277;108823;-69
2022/09/12 03:53:02;;;;;;;8.20;3.50;;;;;;;11.74;72.74;100015.14;103229;1277;140675;-69
2022/09/12 03:55:30;;;;;;;8.10;3.10;;;;;;;11.78;72.86;100019.27;103407;1276;94837;-67
2022/09/12 03:57:58;;;;;;;7.10;3.40;;;;;;;11.78;72.86;100023.00;103349;1277;108274;-67
2022/09/12 04:00:26;;;;;;;7.70;3.20;;;;;;;11.77;72.69;100022.16;103412;1277;138555;-67
2022/09/12 04:02:55;;;;;;;6.50;2.90;;;;;;;11.74;72.75;100018.70;103325;1277;108848;-67
2022/09/12 04:05:24;;;;;;;7.30;3.50;;;;;;;11.68;72.79;100021.95;103304;1277;139839;-68
2022/09/12 04:07:52;;;;;;;7.40;3.00;;;;;;;11.69;72.79;100024.23;103481;1277;95270;-66
2022/09/12 04:10:21;;;;;;;6.60;3.30;;;;;;;11.72;72.97;100017.20;103332;1277;108969;-69
2022/09/12 04:12:50;;;;;;;8.80;3.30;;;;;;;11.73;72.92;100023.91;103524;1277;138586;-68
2022/09/12 04:15:18;;;;;;;6.60;3.10;;;;;;;11.68;73.02;100027.46;102316;1277;1490599;-67
2022/09/12 04:17:46;;;;;;;6.20;3.20;;;;;;;11.68;73.06;100031.55;103147;1277;138885;-68
2022/09/12 04:20:14;;;;;;;6.90;3.10;;;;;;;11.69;73.24;100037.92;103439;1277;94349;-66
2022/09/12 04:22:42;;;;;;;8.30;3.40;;;;;;;11.72;73.12;100035.68;103479;1277;108407;-66
2022/09/12 04:25:10;;;;;;;9.20;3.60;;;;;;;11.71;73.19;100038.38;103340;1277;138346;-68
2022/09/12 04:27:38;;;;;;;7.00;3.10;;;;;;;11.68;73.52;100037.94;103258;1278;108879;-68
2022/09/12 04:30:07;;;;;;;7.20;3.40;;;;;;;11.68;73.84;100034.40;103371;1277;139291;-68
2022/09/12 04:32:35;;;;;;;6.80;3.20;;;;;;;11.67;73.98;100031.22;103349;1277;95129;-68
2022/09/12 04:35:03;;;;;;;8.10;3.60;;;;;;;11.62;74.11;100031.95;103245;1277;138690;-68
2022/09/12 04:37:31;;;;;;;7.20;3.40;;;;;;;11.58;74.51;100036.02;103408;1277;99391;-68
2022/09/12 04:39:59;;;;;;;6.50;3.20;;;;;;;11.58;74.61;100039.94;103323;1278;109363;-69
2022/09/12 04:42:28;;;;;;;6.20;2.90;;;;;;;11.59;74.56;100048.79;103355;1277;139733;-67
2022/09/12 04:44:56;;;;;;;7.50;3.50;;;;;;;11.62;74.57;100052.94;103449;1277;94854;-67
2022/09/12 04:47:24;;;;;;;6.30;3.40;;;;;;;11.64;74.49;100050.74;103428;1277;138401;-67
2022/09/12 04:49:52;;;;;;;6.70;3.40;;;;;;;11.66;74.41;100043.71;103370;1277;99823;-67
2022/09/12 04:52:20;;;;;;;8.10;3.20;;;;;;;11.68;74.43;100044.18;103839;1276;108945;-68
2022/09/12 04:54:48;;;;;;;6.20;2.90;;;;;;;11.70;74.44;100041.63;103405;1277;138345;-68
2022/09/12 04:57:16;;;;;;;7.10;3.30;;;;;;;11.68;74.47;100047.75;103503;1277;94502;-66
2022/09/12 04:59:43;;;;;;;47.70;29.20;;;;;;;11.65;74.48;100050.31;103363;1277;138479;-69
2022/09/12 05:02:11;;;;;;;8.30;4.60;;;;;;;11.68;74.47;100050.41;103512;1277;99915;-67
2022/09/12 05:04:39;;;;;;;7.10;3.60;;;;;;;11.74;74.47;100049.66;103503;1277;108323;-67
2022/09/12 05:07:07;;;;;;;7.50;3.60;;;;;;;11.76;74.20;100049.95;103244;1277;138038;-68
2022/09/12 05:09:35;;;;;;;6.70;3.10;;;;;;;11.75;74.22;100052.29;103425;1277;94699;-67
2022/09/12 05:12:04;;;;;;;8.00;3.20;;;;;;;11.76;74.35;100056.71;103339;1276;138500;-67
2022/09/12 05:14:33;;;;;;;7.60;3.40;;;;;;;11.75;74.29;100058.52;104250;1279;99392;-71
2022/09/12 05:17:03;;;;;;;6.80;3.10;;;;;;;11.73;74.40;100060.55;103453;1277;138255;-69
2022/09/12 05:19:31;;;;;;;6.90;3.30;;;;;;;11.72;74.42;100061.11;103365;1276;94777;-64
2022/09/12 05:21:59;;;;;;;6.70;3.20;;;;;;;11.73;74.41;100063.94;103369;1277;94393;-67
2022/09/12 05:24:27;;;;;;;8.30;3.20;;;;;;;11.74;74.45;100068.16;103392;1276;138606;-68
2022/09/12 05:26:55;;;;;;;6.70;3.30;;;;;;;11.74;74.27;100071.70;103519;1277;99484;-67
2022/09/12 05:29:24;;;;;;;6.40;3.20;;;;;;;11.71;74.33;100074.30;103372;1276;137994;-67
2022/09/12 05:31:52;;;;;;;7.30;3.00;;;;;;;11.69;74.28;100078.83;103483;1277;94755;-70
2022/09/12 05:34:21;;;;;;;6.30;3.10;;;;;;;11.67;74.56;100074.95;103409;1277;95139;-65
2022/09/12 05:36:49;;;;;;;6.50;2.90;;;;;;;11.70;74.38;100076.83;103315;1277;138100;-65
2022/09/12 05:39:17;;;;;;;7.00;3.40;;;;;;;11.71;74.40;100078.04;103373;1278;99360;-65
2022/09/12 05:41:46;;;;;;;8.20;3.10;;;;;;;11.75;74.50;100078.10;103374;1277;138103;-64
2022/09/12 05:44:14;;;;;;;6.90;2.90;;;;;;;11.82;74.42;100082.09;103531;1277;94705;-66
2022/09/12 05:46:45;;;;;;;6.30;3.00;;;;;;;11.85;74.18;100085.73;103533;1277;94420;-66
2022/09/12 05:49:13;;;;;;;7.20;3.30;;;;;;;11.85;74.14;100086.27;103914;1276;138067;-66
2022/09/12 05:51:44;;;;;;;7.20;3.50;;;;;;;11.82;74.22;100088.16;103328;1279;99410;-66
2022/09/12 05:54:14;;;;;;;5.60;2.90;;;;;;;11.84;74.34;100085.39;103414;1277;138491;-65
2022/09/12 05:56:43;;;;;;;7.50;3.10;;;;;;;11.87;74.35;100086.87;103499;1277;95294;-66
2022/09/12 05:59:18;;;;;;;8.20;3.20;;;;;;;11.85;74.32;100088.19;103378;1277;138963;-66
2022/09/12 06:01:47;;;;;;;7.30;3.40;;;;;;;11.83;74.34;100085.60;103343;1277;108322;-65
2022/09/12 06:04:16;;;;;;;7.00;3.20;;;;;;;11.81;74.51;100085.14;103677;1277;99606;-65
2022/09/12 06:06:45;;;;;;;5.90;2.80;;;;;;;11.82;74.64;100085.11;103479;1276;139012;-66
2022/09/12 06:09:15;;;;;;;7.70;3.00;;;;;;;11.86;74.89;100083.20;103566;1276;94834;-67
2022/09/12 06:11:45;;;;;;;7.40;3.00;;;;;;;11.84;74.86;100083.27;103557;1277;138348;-66
2022/09/12 06:14:16;;;;;;;7.00;3.00;;;;;;;11.84;75.10;100082.03;103384;1278;109001;-65
2022/09/12 06:16:46;;;;;;;6.10;2.90;;;;;;;11.88;75.25;100084.20;103754;1277;99322;-68
2022/09/12 06:19:26;;;;;;;6.00;2.90;;;;;;;11.95;75.36;100080.20;103313;1278;139510;-66
2022/09/12 06:21:54;;;;;;;7.00;3.00;;;;;;;12.00;75.16;100080.41;103630;1277;94682;-66
2022/09/12 06:24:22;;;;;;;6.60;2.80;;;;;;;12.02;75.32;100082.29;103428;1276;138070;-66
2022/09/12 06:26:51;;;;;;;7.30;3.00;;;;;;;12.07;75.21;100085.70;103577;1277;108589;-65
2022/09/12 06:29:20;;;;;;;7.40;3.10;;;;;;;12.05;75.08;100087.86;103377;1277;138540;-66
2022/09/12 06:31:48;;;;;;;6.00;3.30;;;;;;;12.04;75.17;100084.51;103546;1277;108817;-67
2022/09/12 06:34:16;;;;;;;6.70;3.40;;;;;;;12.03;75.23;100085.28;103412;1277;94658;-66
2022/09/12 06:36:46;;;;;;;6.10;2.50;;;;;;;12.07;75.71;100090.13;103415;1277;138419;-67
2022/09/12 06:39:17;;;;;;;6.80;3.20;;;;;;;12.10;75.64;100090.68;103641;1277;108470;-65
2022/09/12 06:41:47;;;;;;;8.00;3.30;;;;;;;12.14;75.83;100091.42;103683;1277;138359;-66
2022/09/12 06:44:18;;;;;;;6.30;3.20;;;;;;;12.13;75.73;100091.27;103493;1276;108894;-67
2022/09/12 06:46:46;;;;;;;7.20;3.20;;;;;;;12.14;75.98;100093.03;103443;1277;94226;-65
2022/09/12 06:49:14;;;;;;;6.70;2.80;;;;;;;12.14;75.71;100090.70;103370;1276;138462;-63
2022/09/12 06:51:43;;;;;;;6.70;2.90;;;;;;;12.16;76.02;100091.36;103408;1278;108584;-67
2022/09/12 06:54:13;;;;;;;7.80;3.10;;;;;;;12.21;75.99;100092.41;103420;1277;138595;-65
2022/09/12 06:56:41;;;;;;;6.60;3.00;;;;;;;12.28;76.03;100088.44;103548;1278;108781;-66
2022/09/12 06:59:09;;;;;;;7.10;3.00;;;;;;;12.34;76.05;100092.45;103323;1277;139987;-65
2022/09/12 07:01:37;;;;;;;6.90;2.90;;;;;;;12.43;76.02;100089.99;103396;1276;94838;-69
2022/09/12 07:04:05;;;;;;;6.30;3.30;;;;;;;12.47;75.77;100091.79;103457;1277;108360;-69
2022/09/12 07:06:39;;;;;;;7.30;3.30;;;;;;;12.45;75.52;100094.17;103353;1277;138268;-69
2022/09/12 07:09:11;;;;;;;6.80;3.10;;;;;;;12.45;75.78;100099.00;103660;1277;108864;-68
2022/09/12 07:11:41;;;;;;;6.80;2.70;;;;;;;12.45;75.84;100099.87;103394;1278;138456;-68
2022/09/12 07:14:12;;;;;;;6.90;3.30;;;;;;;12.49;75.97;100100.08;103507;1277;94309;-69
2022/09/12 07:16:40;;;;;;;5.90;2.80;;;;;;;12.52;76.00;100104.41;103667;1278;109150;-67
2022/09/12 07:19:08;;;;;;;5.90;2.50;;;;;;;12.60;76.10;100099.86;103346;1277;139662;-69
2022/09/12 07:21:38;;;;;;;7.30;3.00;;;;;;;12.63;75.63;100104.70;103999;1277;107610;-68
2022/09/12 07:24:09;;;;;;;7.00;2.70;;;;;;;12.67;75.63;100109.16;103093;1278;138180;-68
2022/09/12 07:26:39;;;;;;;6.30;2.60;;;;;;;12.68;75.67;100108.03;103388;1277;95125;-66
2022/09/12 07:29:13;;;;;;;7.10;3.00;;;;;;;12.74;75.61;100111.73;103106;1277;139131;-69
2022/09/12 07:32:01;;;;;;;5.60;2.90;;;;;;;12.84;75.79;100115.23;103215;1277;99468;-65
2022/09/12 07:34:29;;;;;;;6.90;3.10;;;;;;;12.88;75.66;100116.52;103210;1277;108858;-69
2022/09/12 07:36:57;;;;;;;6.80;2.80;;;;;;;12.91;75.44;100123.36;103207;1277;138398;-69
2022/09/12 07:39:25;;;;;;;5.90;2.50;;;;;;;12.92;75.48;100127.23;103332;1278;94304;-68
2022/09/12 07:41:53;;;;;;;6.10;2.50;;;;;;;13.00;75.38;100130.85;103071;1276;138562;-64
2022/09/12 07:44:21;;;;;;;6.10;2.90;;;;;;;12.98;75.03;100136.08;103392;1277;99910;-70
2022/09/12 07:46:49;;;;;;;7.90;2.90;;;;;;;12.93;75.00;100138.77;103338;1279;107759;-71
2022/09/12 07:49:17;;;;;;;7.70;2.60;;;;;;;12.92;75.01;100136.85;103134;1277;138041;-68
2022/09/12 07:51:45;;;;;;;5.50;2.70;;;;;;;12.93;75.01;100139.52;103301;1277;94342;-68
2022/09/12 07:54:12;;;;;;;6.20;2.80;;;;;;;12.96;75.08;100142.09;103126;1278;138239;-68
2022/09/12 07:56:40;;;;;;;6.20;2.70;;;;;;;12.94;75.12;100142.49;103073;1277;99342;-67
2022/09/12 07:59:08;;;;;;;7.40;2.90;;;;;;;12.94;74.83;100143.92;103304;1278;138442;-68
2022/09/12 08:01:36;;;;;;;7.20;2.50;;;;;;;12.93;74.58;100145.19;103298;1277;95259;-69
2022/09/12 08:04:04;;;;;;;6.10;2.80;;;;;;;12.91;74.62;100142.80;103374;1279;95190;-69
2022/09/12 08:06:34;;;;;;;6.70;2.70;;;;;;;12.92;74.98;100147.20;103316;1278;141363;-69
2022/09/12 08:09:04;;;;;;;7.40;2.60;;;;;;;12.93;74.75;100142.17;103444;1279;99440;-68
2022/09/12 08:11:33;;;;;;;5.90;2.90;;;;;;;12.93;75.00;100152.32;103359;1277;138775;-69
2022/09/12 08:14:04;;;;;;;7.00;3.00;;;;;;;12.97;75.12;100151.62;103474;1278;94732;-69
2022/09/12 08:16:34;;;;;;;7.60;2.90;;;;;;;13.05;75.20;100150.95;103392;1277;94284;-68
2022/09/12 08:19:03;;;;;;;5.80;2.50;;;;;;;13.10;75.12;100156.46;103445;1277;138569;-64
2022/09/12 08:21:32;;;;;;;6.70;2.70;;;;;;;13.13;74.86;100155.09;103493;1277;99513;-69
2022/09/12 08:24:03;;;;;;;6.00;2.70;;;;;;;13.13;74.66;100155.42;103311;1277;139061;-67
2022/09/12 08:26:33;;;;;;;6.00;2.90;;;;;;;13.13;74.55;100155.98;103354;1279;94530;-68
2022/09/12 08:29:01;;;;;;;8.40;2.90;;;;;;;13.11;74.37;100160.15;103269;1278;138444;-68
2022/09/12 08:31:35;;;;;;;6.10;2.60;;;;;;;13.13;74.50;100156.32;103377;1277;108315;-70
2022/09/12 08:34:05;;;;;;;6.80;2.80;;;;;;;13.16;74.53;100157.99;103409;1278;99440;-68
2022/09/12 08:36:34;;;;;;;6.00;2.80;;;;;;;13.16;74.58;100157.27;103285;1278;138562;-68
2022/09/12 08:39:05;;;;;;;7.10;2.90;;;;;;;13.17;74.71;100157.63;103490;1278;94414;-66
2022/09/12 08:41:40;;;;;;;5.60;2.50;;;;;;;13.20;74.61;100159.98;103583;1277;139230;-67
2022/09/12 08:44:26;;;;;;;7.10;2.80;;;;;;;13.26;74.45;100159.73;103478;1277;108464;-68
2022/09/12 08:46:57;;;;;;;6.30;2.90;;;;;;;13.30;74.33;100156.00;103360;1276;99674;-72
2022/09/12 08:49:41;;;;;;;5.80;2.60;;;;;;;13.30;74.21;100158.13;103374;1277;108925;-69
2022/09/12 08:52:22;;;;;;;7.20;2.60;;;;;;;13.35;74.21;100158.83;103289;1279;94730;-68
2022/09/12 08:54:50;;;;;;;5.40;2.40;;;;;;;13.39;74.17;100157.07;103310;1277;139880;-68
2022/09/12 08:57:18;;;;;;;6.30;3.10;;;;;;;13.43;74.10;100163.87;103790;1277;108391;-69
2022/09/12 08:59:47;;;;;;;5.60;2.90;;;;;;;13.49;73.83;100165.23;103313;1276;138238;-70
2022/09/12 09:02:21;;;;;;;6.60;2.70;;;;;;;13.51;73.61;100164.60;103559;1277;108089;-67
2022/09/12 09:04:55;;;;;;;5.80;2.80;;;;;;;13.55;73.67;100165.48;103322;1277;94422;-67
2022/09/12 09:07:24;;;;;;;7.10;2.60;;;;;;;13.61;73.48;100163.81;103334;1276;94305;-66
2022/09/12 09:10:18;;;;;;;6.70;3.00;;;;;;;13.68;73.57;100165.31;103054;1277;108778;-67
2022/09/12 09:12:59;;;;;;;7.80;3.20;;;;;;;13.73;73.29;100163.69;103140;1276;138114;-67
2022/09/12 09:15:39;;;;;;;7.90;2.80;;;;;;;13.76;72.84;100167.64;103152;1277;109062;-68
2022/09/12 09:18:30;;;;;;;6.60;2.80;;;;;;;13.75;72.56;100162.31;103986;1276;138969;-67
2022/09/12 09:21:05;;;;;;;6.00;2.80;;;;;;;13.81;72.54;100165.30;103463;1277;94369;-66
2022/09/12 09:23:39;;;;;;;7.60;3.50;;;;;;;13.83;72.85;100170.54;103020;1277;138246;-67
2022/09/12 09:26:13;;;;;;;6.90;3.20;;;;;;;13.93;72.75;100174.23;103310;1278;99399;-67
2022/09/12 09:28:48;;;;;;;7.80;3.20;;;;;;;14.00;72.55;100172.16;103195;1279;108646;-68
2022/09/12 09:31:18;;;;;;;6.30;2.90;;;;;;;14.04;72.41;100172.87;103249;1277;140265;-67
2022/09/12 09:33:54;;;;;;;5.70;3.00;;;;;;;14.06;72.36;100173.64;103661;1277;94334;-69
2022/09/12 09:36:40;;;;;;;7.00;2.70;;;;;;;14.07;72.09;100172.37;103497;1277;138168;-69
2022/09/12 09:39:33;;;;;;;7.00;3.30;;;;;;;14.15;72.15;100173.81;103483;1277;99798;-67
2022/09/12 09:42:25;;;;;;;6.80;3.00;;;;;;;14.24;72.07;100175.16;103590;1277;137976;-68
2022/09/12 09:44:59;;;;;;;8.00;3.10;;;;;;;14.31;71.64;100177.02;103496;1276;94330;-65
2022/09/12 09:47:27;;;;;;;6.60;2.80;;;;;;;14.31;70.93;100180.05;103382;1277;138830;-67
2022/09/12 09:49:55;;;;;;;7.20;3.30;;;;;;;14.27;70.92;100180.95;103458;1277;108748;-68
2022/09/12 09:52:29;;;;;;;6.50;2.90;;;;;;;14.28;71.24;100182.52;103453;1276;99405;-69
2022/09/12 09:55:00;;;;;;;6.70;3.00;;;;;;;14.24;71.04;100183.04;103711;1277;138295;-68
2022/09/12 09:57:34;;;;;;;7.40;3.10;;;;;;;14.17;70.74;100186.02;103620;1277;94673;-66
2022/09/12 10:00:25;;;;;;;6.70;3.00;;;;;;;14.18;70.82;100188.48;103399;1277;138308;-65
2022/09/12 10:03:09;;;;;;;5.80;3.00;;;;;;;14.20;70.98;100192.69;103961;1276;108392;-67
2022/09/12 10:05:47;;;;;;;7.80;3.10;;;;;;;14.18;70.67;100191.18;103597;1277;139444;-67
2022/09/12 10:08:25;;;;;;;5.90;3.00;;;;;;;14.20;70.71;100193.56;103474;1277;108760;-67
2022/09/12 10:11:25;;;;;;;6.00;2.90;;;;;;;14.26;70.89;100196.55;103936;1277;94900;-67
2022/09/12 10:13:55;;;;;;;7.40;2.80;;;;;;;14.28;70.91;100200.01;103629;1277;94289;-67
2022/09/12 10:16:47;;;;;;;7.50;2.90;;;;;;;14.30;70.63;100201.00;103728;1277;108367;-65
2022/09/12 10:19:24;;;;;;;6.30;2.90;;;;;;;14.29;70.76;100203.54;103421;1277;138884;-68
2022/09/12 10:21:55;;;;;;;7.30;2.60;;;;;;;14.30;70.71;100208.84;103455;1277;108810;-68
2022/09/12 10:24:46;;;;;;;7.90;2.90;;;;;;;14.28;70.41;100209.48;103391;1277;137792;-67
2022/09/12 10:27:19;;;;;;;6.70;3.10;;;;;;;14.24;70.60;100209.66;103468;1277;94404;-67
2022/09/12 10:30:17;;;;;;;7.80;2.80;;;;;;;14.24;70.70;100210.73;103426;1277;138753;-67
2022/09/12 10:32:51;;;;;;;7.20;3.10;;;;;;;14.26;71.03;100213.12;103656;1276;99370;-67
2022/09/12 10:35:21;;;;;;;6.70;2.70;;;;;;;14.30;71.10;100214.37;103282;1277;142157;-66
2022/09/12 10:38:01;;;;;;;6.10;2.80;;;;;;;14.35;71.11;100216.48;103474;1277;94746;-68
2022/09/12 10:40:38;;;;;;;6.70;2.80;;;;;;;14.39;70.83;100218.62;103525;1277;94687;-68
2022/09/12 10:43:41;;;;;;;7.20;2.80;;;;;;;14.44;70.74;100217.66;103468;1277;138232;-68
2022/09/12 10:46:18;;;;;;;8.10;3.20;;;;;;;14.50;70.55;100219.02;103499;1277;99294;-68
2022/09/12 10:48:48;;;;;;;7.20;2.90;;;;;;;14.52;70.34;100221.81;103526;1277;138253;-67
2022/09/12 10:51:24;;;;;;;7.10;2.80;;;;;;;14.56;70.48;100219.98;103509;1277;94757;-67
2022/09/12 10:54:04;;;;;;;7.20;2.80;;;;;;;14.63;70.58;100222.02;103663;1277;138827;-68
2022/09/12 10:56:42;;;;;;;8.20;3.00;;;;;;;14.63;70.45;100226.48;103631;1277;108226;-66
2022/09/12 10:59:37;;;;;;;7.00;2.90;;;;;;;14.65;70.47;100228.18;103478;1277;98513;-67
2022/09/12 11:02:20;;;;;;;9.40;3.00;;;;;;;14.64;70.13;100228.08;103454;1277;108881;-67
2022/09/12 11:05:10;;;;;;;7.10;2.70;;;;;;;14.66;70.02;100229.77;103566;1277;94443;-66
2022/09/12 11:07:45;;;;;;;6.70;3.10;;;;;;;14.68;69.93;100231.09;103395;1277;137747;-66
2022/09/12 11:10:53;;;;;;;7.00;2.80;;;;;;;14.71;70.21;100231.15;103451;1277;108381;-66
2022/09/12 11:13:54;;;;;;;8.40;3.00;;;;;;;14.77;69.87;100234.81;103416;1277;138670;-69
2022/09/12 11:16:47;;;;;;;6.60;3.40;;;;;;;14.84;69.72;100233.58;103300;1277;108875;-66
2022/09/12 11:19:40;;;;;;;9.20;3.10;;;;;;;14.87;69.63;100231.29;103366;1277;138055;-66
2022/09/12 11:22:20;;;;;;;7.00;3.00;;;;;;;14.91;69.80;100230.38;103405;1277;94817;-66
2022/09/12 11:25:13;;;;;;;5.80;2.60;;;;;;;14.99;69.39;100229.46;103381;1277;138573;-66
2022/09/12 11:27:47;;;;;;;6.90;3.10;;;;;;;15.03;69.29;100229.63;103598;1277;99437;-67
2022/09/12 11:30:16;;;;;;;5.40;2.50;;;;;;;15.03;69.06;100226.98;103384;1277;138034;-68
2022/09/12 11:33:08;;;;;;;6.80;2.80;;;;;;;15.00;69.14;100227.84;103462;1277;94424;-67
2022/09/12 11:35:46;;;;;;;5.90;2.60;;;;;;;14.99;69.40;100230.72;103458;1277;138619;-66
2022/09/12 11:38:22;;;;;;;6.10;2.60;;;;;;;14.99;69.05;100230.00;103544;1277;108429;-66
2022/09/12 11:41:13;;;;;;;5.70;2.50;;;;;;;15.05;69.24;100228.48;103582;1277;99406;-66
2022/09/12 11:43:47;;;;;;;6.90;2.50;;;;;;;15.02;68.83;100229.31;103229;1277;138275;-66
2022/09/12 11:46:31;;;;;;;5.60;2.40;;;;;;;14.99;68.88;100229.45;103555;1277;94613;-67